Nenana Municipal Airport Nenana US
ICAO: PANN
IATA:
Category: Medium
Scheduled Services:

Elevation: 362 ft
TransAlt. 18000 ft.

Airport Communications:
FAIRBANKS APP/DEP:125.35
ASOS:125.2
CTAF:122.1
FAIRBANKS RDO:122.5
TWEB:115.8

PANN Zoom In..

If you have problems with the map follow the link
https://www.worldairports.se/pages/airport.php?
ICAO=PANN

Runways:

(A) RW 04L length 4600 ft width 100 ft
---- / hdg 38

(B) RW 04R length 2520 ft width 60 ft
---- / hdg 38

(C) RW 22L length 2520 ft width 60 ft
---- / hdg 218

(D) RW 22R length 4600 ft width 100 ft
---- / hdg 218

Location; PANN
Day. 14 / Time. 18.53 Zulu
* Altimeter: 29.65
* Temperature: -04° c. -24.8°f.
* Wind from: 070° Speed 14 kn with Gusts up to 20 kn.
Dewpoint: -11° c.
Visibility: 10 Statute Miles.
Clouds: Clear (automated report).

PANN 141853Z AUTO 07014G20KT 10SM CLR M04/M11 A2965 RMK AO2 SLP051 T10441106 TSNO


Wind From 070°
Speed 14 kn.

 
 
jpsmedia worldairports.se 2019   terms of use